createdAt,value
2019-02-11T00:00:00.425Z,17.72
2019-02-11T00:02:32.676Z,17.70
2019-02-11T00:05:04.930Z,17.70
2019-02-11T00:07:37.116Z,17.69
2019-02-11T00:10:09.296Z,17.70
2019-02-11T00:12:42.505Z,17.67
2019-02-11T00:15:14.856Z,17.68
2019-02-11T00:17:46.996Z,17.69
2019-02-11T00:20:19.160Z,17.68
2019-02-11T00:22:51.319Z,17.67
2019-02-11T00:25:23.488Z,17.67
2019-02-11T00:27:55.636Z,17.66
2019-02-11T00:30:27.669Z,17.66
2019-02-11T00:32:59.737Z,17.65
2019-02-11T00:35:31.837Z,17.65
2019-02-11T00:38:04.060Z,17.64
2019-02-11T00:40:36.141Z,17.62
2019-02-11T00:43:08.273Z,17.63
2019-02-11T00:45:41.481Z,17.63
2019-02-11T00:48:13.626Z,17.61
2019-02-11T00:50:45.948Z,17.62
2019-02-11T00:53:18.260Z,17.58
2019-02-11T00:55:50.568Z,17.60
2019-02-11T00:58:22.707Z,17.59
2019-02-11T01:00:55.093Z,17.59
2019-02-11T01:03:27.320Z,17.58
2019-02-11T01:05:59.565Z,17.58
2019-02-11T01:08:31.665Z,17.57
2019-02-11T01:11:03.896Z,17.55
2019-02-11T01:13:36.199Z,17.56
2019-02-11T01:16:08.523Z,17.54
2019-02-11T01:18:40.655Z,17.56
2019-02-11T01:21:12.985Z,17.54
2019-02-11T01:23:45.028Z,17.54
2019-02-11T01:26:18.322Z,17.54
2019-02-11T01:28:50.455Z,17.53
2019-02-11T01:31:22.589Z,17.52
2019-02-11T01:33:54.685Z,17.50
2019-02-11T01:36:26.923Z,17.50
2019-02-11T01:38:59.119Z,17.50
2019-02-11T01:41:31.330Z,17.50
2019-02-11T01:44:03.638Z,17.49
2019-02-11T01:46:35.794Z,17.48
2019-02-11T01:49:07.990Z,17.48
2019-02-11T01:51:40.622Z,17.48
2019-02-11T01:54:12.699Z,17.48
2019-02-11T01:56:44.898Z,17.47
2019-02-11T01:59:17.070Z,17.46
2019-02-11T02:01:49.229Z,17.46
2019-02-11T02:04:21.560Z,17.46
2019-02-11T02:06:53.768Z,17.46
2019-02-11T02:09:26.108Z,17.45
2019-02-11T02:11:58.213Z,17.46
2019-02-11T02:14:30.366Z,17.43
2019-02-11T02:17:02.555Z,17.45
2019-02-11T02:19:35.653Z,17.48
2019-02-11T02:22:07.891Z,17.45
2019-02-11T02:24:40.050Z,17.43
2019-02-11T02:27:12.220Z,17.42
2019-02-11T02:29:44.337Z,17.45
2019-02-11T02:32:17.575Z,17.44
2019-02-11T02:34:49.906Z,17.43
2019-02-11T02:37:23.015Z,17.43
2019-02-11T02:39:55.297Z,17.43
2019-02-11T02:42:27.663Z,17.40
2019-02-11T02:44:59.814Z,17.42
2019-02-11T02:47:32.120Z,17.43
2019-02-11T02:50:04.283Z,17.43
2019-02-11T02:52:36.454Z,17.43
2019-02-11T02:55:08.603Z,17.42
2019-02-11T02:57:41.235Z,17.43
2019-02-11T03:00:13.337Z,17.42
2019-02-11T03:02:45.764Z,17.42
2019-02-11T03:05:17.811Z,17.42
2019-02-11T03:07:50.121Z,17.41
2019-02-11T03:10:22.205Z,17.40
2019-02-11T03:12:54.445Z,17.40
2019-02-11T03:15:26.605Z,17.40
2019-02-11T03:17:59.193Z,17.38
2019-02-11T03:20:31.405Z,17.39
2019-02-11T03:23:03.685Z,17.38
2019-02-11T03:25:35.697Z,17.39
2019-02-11T03:28:08.102Z,17.39
2019-02-11T03:30:41.633Z,17.39
2019-02-11T03:33:14.786Z,17.39
2019-02-11T03:35:47.169Z,17.40
2019-02-11T03:38:19.344Z,17.38
2019-02-11T03:40:51.473Z,17.40
2019-02-11T03:43:23.588Z,17.40
2019-02-11T03:45:56.924Z,17.39
2019-02-11T03:48:29.051Z,17.37
2019-02-11T03:51:02.285Z,17.36
2019-02-11T03:53:34.590Z,17.35
2019-02-11T03:56:06.935Z,17.34
2019-02-11T03:58:39.149Z,17.33
2019-02-11T04:01:11.537Z,17.33
2019-02-11T04:03:43.592Z,17.33
2019-02-11T04:06:15.816Z,17.32
2019-02-11T04:08:48.016Z,17.31
2019-02-11T04:11:20.242Z,17.30
2019-02-11T04:13:52.698Z,17.30
2019-02-11T04:16:24.916Z,17.30
2019-02-11T04:18:57.443Z,17.30
2019-02-11T04:21:30.674Z,17.31
2019-02-11T04:24:03.504Z,17.31
2019-02-11T04:26:35.822Z,17.30
2019-02-11T04:29:08.142Z,17.27
2019-02-11T04:31:41.393Z,17.28
2019-02-11T04:34:13.599Z,17.26
2019-02-11T04:36:45.709Z,17.27
2019-02-11T04:39:17.919Z,17.25
2019-02-11T04:41:51.249Z,17.23
2019-02-11T04:44:33.648Z,17.23
2019-02-11T04:46:59.131Z,17.23
2019-02-11T04:49:31.538Z,17.21
2019-02-11T04:52:03.832Z,17.23
2019-02-11T04:54:36.015Z,17.19
2019-02-11T04:57:08.160Z,17.22
2019-02-11T04:59:40.312Z,17.20
2019-02-11T05:02:12.899Z,17.20
2019-02-11T05:04:45.228Z,17.21
2019-02-11T05:07:18.508Z,17.20
2019-02-11T05:09:51.046Z,17.20
2019-02-11T05:12:23.426Z,17.20
2019-02-11T05:14:55.742Z,17.20
2019-02-11T05:17:27.832Z,17.25
2019-02-11T05:20:00.195Z,17.23
2019-02-11T05:22:34.442Z,17.20
2019-02-11T05:25:06.778Z,17.21
2019-02-11T05:27:39.015Z,17.18
2019-02-11T05:30:11.569Z,17.19
2019-02-11T05:32:45.181Z,17.19
2019-02-11T05:35:18.379Z,17.18
2019-02-11T05:37:50.771Z,17.20
2019-02-11T05:40:23.029Z,17.20
2019-02-11T05:42:55.275Z,17.22
2019-02-11T05:45:27.704Z,17.21
2019-02-11T05:47:59.805Z,17.21
2019-02-11T05:50:32.112Z,17.20
2019-02-11T05:53:04.232Z,17.23
2019-02-11T05:55:36.404Z,17.25
2019-02-11T05:58:08.588Z,17.23
2019-02-11T06:00:41.787Z,17.18
2019-02-11T06:03:13.928Z,17.16
2019-02-11T06:05:45.911Z,17.16
2019-02-11T06:08:18.103Z,17.16
2019-02-11T06:10:51.132Z,17.14
2019-02-11T06:13:23.393Z,17.17
2019-02-11T06:15:55.446Z,17.16
2019-02-11T06:18:28.559Z,17.15
2019-02-11T06:21:00.700Z,17.15
2019-02-11T06:23:32.897Z,17.15
2019-02-11T06:26:04.976Z,17.13
2019-02-11T06:28:37.114Z,17.13
2019-02-11T06:31:09.329Z,17.13
2019-02-11T06:33:41.445Z,17.13
2019-02-11T06:36:14.796Z,17.13
2019-02-11T06:38:46.944Z,17.13
2019-02-11T06:41:19.156Z,17.13
2019-02-11T06:43:51.455Z,17.13
2019-02-11T06:46:23.524Z,17.15
2019-02-11T06:48:55.645Z,17.16
2019-02-11T06:51:28.871Z,17.16
2019-02-11T06:54:01.025Z,17.19
2019-02-11T06:56:33.170Z,17.16
2019-02-11T06:59:05.468Z,17.13
2019-02-11T07:01:37.523Z,17.14
2019-02-11T07:04:09.805Z,17.17
2019-02-11T07:06:43.062Z,17.16
2019-02-11T07:09:15.171Z,17.15
2019-02-11T07:11:47.700Z,17.16
2019-02-11T07:14:20.880Z,17.17
2019-02-11T07:16:52.936Z,17.17
2019-02-11T07:19:25.331Z,17.16
2019-02-11T07:21:57.616Z,17.20
2019-02-11T07:24:29.941Z,17.17
2019-02-11T07:27:02.213Z,17.14
2019-02-11T07:29:34.764Z,17.14
2019-02-11T07:32:07.952Z,17.13
2019-02-11T07:34:40.219Z,17.13
2019-02-11T07:37:12.464Z,17.13
2019-02-11T07:39:44.585Z,17.13
2019-02-11T07:42:38.233Z,17.14
2019-02-11T07:45:29.670Z,17.15
2019-02-11T07:47:56.155Z,17.15
2019-02-11T07:50:31.182Z,17.18
2019-02-11T07:53:03.408Z,17.15
2019-02-11T07:55:35.423Z,17.15
2019-02-11T07:58:07.661Z,17.15
2019-02-11T08:00:39.757Z,17.13
2019-02-11T08:03:11.931Z,17.14
2019-02-11T08:05:44.425Z,17.15
2019-02-11T08:08:17.440Z,17.14
2019-02-11T08:10:49.597Z,17.14
2019-02-11T08:13:21.932Z,17.15
2019-02-11T08:15:53.926Z,17.15
2019-02-11T08:18:26.073Z,17.15
2019-02-11T08:21:00.221Z,17.15
2019-02-11T08:23:32.517Z,17.15
2019-02-11T08:26:06.671Z,17.15
2019-02-11T08:28:38.797Z,17.15
2019-02-11T08:31:10.963Z,17.16
2019-02-11T08:33:44.066Z,17.16
2019-02-11T08:36:16.532Z,17.15
2019-02-11T08:38:48.759Z,17.16
2019-02-11T08:41:21.081Z,17.16
2019-02-11T08:43:53.561Z,17.17
2019-02-11T08:46:26.157Z,17.17
2019-02-11T08:48:58.629Z,17.18
2019-02-11T08:51:31.001Z,17.18
2019-02-11T08:54:04.046Z,17.18
2019-02-11T08:56:37.398Z,17.19
2019-02-11T08:59:09.905Z,17.18
2019-02-11T09:01:42.124Z,17.18
2019-02-11T09:04:18.961Z,17.18
2019-02-11T09:06:48.527Z,17.20
2019-02-11T09:09:21.245Z,17.20
2019-02-11T09:11:53.431Z,17.21
2019-02-11T09:14:25.672Z,17.20
2019-02-11T09:16:57.924Z,17.22
2019-02-11T09:19:30.312Z,17.26
2019-02-11T09:22:07.549Z,17.26
2019-02-11T09:24:36.493Z,17.27
2019-02-11T09:27:08.689Z,17.29
2019-02-11T09:29:41.984Z,17.31
2019-02-11T09:32:14.045Z,17.29
2019-02-11T09:34:46.463Z,17.29
2019-02-11T09:37:20.736Z,17.31
2019-02-11T09:39:52.925Z,17.31
2019-02-11T09:42:24.962Z,17.32
2019-02-11T09:44:57.295Z,17.33
2019-02-11T09:47:29.486Z,17.34
2019-02-11T09:50:14.400Z,17.35
2019-02-11T09:52:46.610Z,17.36
2019-02-11T09:55:24.185Z,17.36
2019-02-11T09:57:56.499Z,17.38
2019-02-11T10:00:28.702Z,17.40
2019-02-11T10:03:00.899Z,17.40
2019-02-11T10:05:33.486Z,17.37
2019-02-11T10:08:05.780Z,17.39
2019-02-11T10:10:38.510Z,17.38
2019-02-11T10:13:10.922Z,17.40
2019-02-11T10:15:43.115Z,17.39
2019-02-11T10:18:16.247Z,17.37
2019-02-11T10:20:48.438Z,17.37
2019-02-11T10:23:20.610Z,17.38
2019-02-11T10:25:52.952Z,17.39
2019-02-11T10:28:25.060Z,17.44
2019-02-11T10:30:57.314Z,17.48
2019-02-11T10:33:29.837Z,17.53
2019-02-11T10:36:01.911Z,17.58
2019-02-11T10:38:36.545Z,17.61
2019-02-11T10:41:07.905Z,17.64
2019-02-11T10:43:40.286Z,17.71
2019-02-11T10:46:20.664Z,17.74
2019-02-11T10:48:48.812Z,17.79
2019-02-11T10:51:23.010Z,17.82
2019-02-11T10:53:55.294Z,17.87
2019-02-11T10:56:28.468Z,17.85
2019-02-11T10:59:00.904Z,17.89
2019-02-11T11:01:34.052Z,17.90
2019-02-11T11:04:06.522Z,17.92
2019-02-11T11:06:38.849Z,17.88
2019-02-11T11:09:13.152Z,17.97
2019-02-11T11:11:45.389Z,18.02
2019-02-11T11:14:17.832Z,18.01
2019-02-11T11:16:50.275Z,17.97
2019-02-11T11:19:22.786Z,17.89
2019-02-11T11:21:55.018Z,17.85
2019-02-11T11:24:28.305Z,17.81
2019-02-11T11:27:00.585Z,17.80
2019-02-11T11:29:33.196Z,17.79
2019-02-11T11:32:07.389Z,17.78
2019-02-11T11:34:40.037Z,17.78
2019-02-11T11:37:13.519Z,17.78
2019-02-11T11:39:45.901Z,17.77
2019-02-11T11:42:18.546Z,17.77
2019-02-11T11:44:50.799Z,17.76
2019-02-11T11:47:24.294Z,17.75
2019-02-11T11:49:56.542Z,17.76
2019-02-11T11:52:28.970Z,17.75
2019-02-11T11:55:01.168Z,17.75
2019-02-11T11:57:33.820Z,17.82
2019-02-11T12:00:06.781Z,17.79
2019-02-11T12:02:39.194Z,17.78
2019-02-11T12:05:11.486Z,17.77
2019-02-11T12:07:43.758Z,17.77
2019-02-11T12:10:17.193Z,17.76
2019-02-11T12:12:49.355Z,17.77
2019-02-11T12:15:22.957Z,17.77
2019-02-11T12:17:55.282Z,17.77
2019-02-11T12:20:32.953Z,17.75
2019-02-11T12:23:04.504Z,17.77
2019-02-11T12:25:36.705Z,17.76
2019-02-11T12:28:08.845Z,17.77
2019-02-11T12:30:41.258Z,17.77
2019-02-11T12:33:13.301Z,17.77
2019-02-11T12:35:45.461Z,17.76
2019-02-11T12:38:17.641Z,17.78
2019-02-11T12:40:49.750Z,17.78
2019-02-11T12:43:22.071Z,17.77
2019-02-11T12:45:54.619Z,17.79
2019-02-11T12:48:28.209Z,17.79
2019-02-11T12:51:00.588Z,17.79
2019-02-11T12:53:34.009Z,17.79
2019-02-11T12:56:07.190Z,17.80
2019-02-11T12:58:39.349Z,17.80
2019-02-11T13:01:11.549Z,17.80
2019-02-11T13:03:43.703Z,17.81
2019-02-11T13:06:16.098Z,17.81
2019-02-11T13:08:48.221Z,17.82
2019-02-11T13:11:20.286Z,17.82
2019-02-11T13:13:52.474Z,17.82
2019-02-11T13:16:26.939Z,17.82
2019-02-11T13:19:00.218Z,17.82
2019-02-11T13:21:32.437Z,17.87
2019-02-11T13:24:04.833Z,17.86
2019-02-11T13:26:36.988Z,17.87
2019-02-11T13:29:09.383Z,17.87
2019-02-11T13:31:41.501Z,17.87
2019-02-11T13:34:16.004Z,17.88
2019-02-11T13:36:48.167Z,17.90
2019-02-11T13:39:20.335Z,17.92
2019-02-11T13:41:53.461Z,17.91
2019-02-11T13:44:25.739Z,17.92
2019-02-11T13:46:59.805Z,17.96
2019-02-11T13:49:32.006Z,17.99
2019-02-11T13:52:05.331Z,17.97
2019-02-11T13:54:37.500Z,17.96
2019-02-11T13:57:09.783Z,17.98
2019-02-11T13:59:42.156Z,17.99
2019-02-11T14:02:14.457Z,18.00
2019-02-11T14:04:46.786Z,17.98
2019-02-11T14:07:19.238Z,17.97
2019-02-11T14:09:53.540Z,17.98
2019-02-11T14:12:26.207Z,18.01
2019-02-11T14:14:58.447Z,18.02
2019-02-11T14:17:30.597Z,18.01
2019-02-11T14:20:05.375Z,17.97
2019-02-11T14:22:37.848Z,17.93
2019-02-11T14:25:10.001Z,17.92
2019-02-11T14:27:43.268Z,17.99
2019-02-11T14:30:15.929Z,17.99
2019-02-11T14:32:49.338Z,17.99
2019-02-11T14:35:22.993Z,17.99
2019-02-11T14:37:55.417Z,17.99
2019-02-11T14:40:27.911Z,17.98
2019-02-11T14:43:00.415Z,18.01
2019-02-11T14:45:32.955Z,18.00
2019-02-11T14:48:05.326Z,18.02
2019-02-11T14:50:37.980Z,18.02
2019-02-11T14:53:10.331Z,18.02
2019-02-11T14:55:42.741Z,18.03
2019-02-11T14:58:14.968Z,18.03
2019-02-11T15:00:47.378Z,18.02
2019-02-11T15:03:19.633Z,18.02
2019-02-11T15:05:51.802Z,18.02
2019-02-11T15:08:23.895Z,18.02
2019-02-11T15:10:56.202Z,18.02
2019-02-11T15:13:28.394Z,18.02
2019-02-11T15:16:00.663Z,18.02
2019-02-11T15:18:34.529Z,18.02
2019-02-11T15:21:07.800Z,18.02
2019-02-11T15:23:40.081Z,18.03
2019-02-11T15:26:15.205Z,18.03
2019-02-11T15:28:47.707Z,18.02
2019-02-11T15:31:19.906Z,18.04
2019-02-11T15:33:53.972Z,18.03
2019-02-11T15:36:26.134Z,18.04
2019-02-11T15:38:59.461Z,18.05
2019-02-11T15:41:31.864Z,18.06
2019-02-11T15:44:04.105Z,18.07
2019-02-11T15:46:36.233Z,18.07
2019-02-11T15:49:08.869Z,18.08
2019-02-11T15:51:42.030Z,18.08
2019-02-11T15:54:14.293Z,18.09
2019-02-11T15:56:46.669Z,18.08
2019-02-11T15:59:18.874Z,18.09
2019-02-11T16:01:51.420Z,18.09
2019-02-11T16:04:23.513Z,18.11
2019-02-11T16:06:56.905Z,18.11
2019-02-11T16:09:29.094Z,18.11
2019-02-11T16:12:01.551Z,18.13
2019-02-11T16:14:33.915Z,18.11
2019-02-11T16:17:06.363Z,18.12
2019-02-11T16:19:40.639Z,18.13
2019-02-11T16:22:13.888Z,18.14
2019-02-11T16:24:46.221Z,18.14
2019-02-11T16:27:18.397Z,18.14
2019-02-11T16:29:50.608Z,18.18
2019-02-11T16:32:22.999Z,18.20
2019-02-11T16:34:55.403Z,18.18
2019-02-11T16:37:28.727Z,18.19
2019-02-11T16:40:01.067Z,18.16
2019-02-11T16:42:33.443Z,18.15
2019-02-11T16:45:05.626Z,18.18
2019-02-11T16:47:38.111Z,18.21
2019-02-11T16:50:10.549Z,18.21
2019-02-11T16:52:43.697Z,18.19
2019-02-11T16:55:15.901Z,18.20
2019-02-11T16:57:48.225Z,18.24
2019-02-11T17:00:20.479Z,18.29
2019-02-11T17:02:52.864Z,18.42
2019-02-11T17:05:25.153Z,18.51
2019-02-11T17:07:57.504Z,18.52
2019-02-11T17:10:29.882Z,18.60
2019-02-11T17:13:01.973Z,18.68
2019-02-11T17:15:34.275Z,18.80
2019-02-11T17:18:06.451Z,18.81
2019-02-11T17:20:38.967Z,18.84
2019-02-11T17:23:11.257Z,18.84
2019-02-11T17:25:43.524Z,18.80
2019-02-11T17:28:15.828Z,18.78
2019-02-11T17:30:48.255Z,18.80
2019-02-11T17:33:20.474Z,18.80
2019-02-11T17:35:52.879Z,18.90
2019-02-11T17:38:25.299Z,18.87
2019-02-11T17:40:57.606Z,18.92
2019-02-11T17:43:29.742Z,18.94
2019-02-11T17:46:02.113Z,18.99
2019-02-11T17:48:34.316Z,19.00
2019-02-11T17:51:06.620Z,19.01
2019-02-11T17:53:39.377Z,18.86
2019-02-11T17:56:11.626Z,18.79
2019-02-11T17:58:44.010Z,18.74
2019-02-11T18:01:16.630Z,18.69
2019-02-11T18:03:48.869Z,18.64
2019-02-11T18:06:21.511Z,18.60
2019-02-11T18:08:54.002Z,18.60
2019-02-11T18:11:26.244Z,18.61
2019-02-11T18:13:58.918Z,18.61
2019-02-11T18:16:31.193Z,18.62
2019-02-11T18:19:03.719Z,18.64
2019-02-11T18:21:35.913Z,18.63
2019-02-11T18:24:08.462Z,18.58
2019-02-11T18:26:40.591Z,18.58
2019-02-11T18:29:13.127Z,18.56
2019-02-11T18:31:45.453Z,18.55
2019-02-11T18:34:17.827Z,18.53
2019-02-11T18:36:50.340Z,18.52
2019-02-11T18:39:22.561Z,18.58
2019-02-11T18:41:54.972Z,18.57
2019-02-11T18:44:28.336Z,18.57
2019-02-11T18:47:00.690Z,18.57
2019-02-11T18:49:34.554Z,18.56
2019-02-11T18:52:07.083Z,18.56
2019-02-11T18:54:39.822Z,18.57
2019-02-11T18:57:11.982Z,18.55
2019-02-11T18:59:44.353Z,18.57
2019-02-11T19:02:16.595Z,18.56
2019-02-11T19:04:48.929Z,18.56
2019-02-11T19:07:21.505Z,18.54
2019-02-11T19:09:53.815Z,18.54
2019-02-11T19:12:25.905Z,18.52
2019-02-11T19:14:58.239Z,18.53
2019-02-11T19:17:30.518Z,18.52
2019-02-11T19:20:02.744Z,18.50
2019-02-11T19:22:35.126Z,18.52
2019-02-11T19:25:07.844Z,18.55
2019-02-11T19:27:40.078Z,18.55
2019-02-11T19:30:14.222Z,18.54
2019-02-11T19:32:46.440Z,18.53
2019-02-11T19:35:18.881Z,18.53
2019-02-11T19:37:51.256Z,18.51
2019-02-11T19:40:23.637Z,18.50
2019-02-11T19:42:55.930Z,18.51
2019-02-11T19:45:28.473Z,18.53
2019-02-11T19:48:00.543Z,18.53
2019-02-11T19:50:32.854Z,18.55
2019-02-11T19:53:05.321Z,18.51
2019-02-11T19:55:37.809Z,18.52
2019-02-11T19:58:10.153Z,18.51
2019-02-11T20:00:42.679Z,18.52
2019-02-11T20:03:14.762Z,18.50
2019-02-11T20:05:47.189Z,18.49
2019-02-11T20:08:19.503Z,18.47
2019-02-11T20:10:51.801Z,18.50
2019-02-11T20:13:24.140Z,18.50
2019-02-11T20:15:56.267Z,18.50
2019-02-11T20:18:28.559Z,18.51
2019-02-11T20:21:00.720Z,18.50
2019-02-11T20:23:34.549Z,18.47
2019-02-11T20:26:06.754Z,18.47
2019-02-11T20:28:38.919Z,18.48
2019-02-11T20:31:11.245Z,18.48
2019-02-11T20:33:43.576Z,18.46
2019-02-11T20:36:15.944Z,18.46
2019-02-11T20:38:48.356Z,18.44
2019-02-11T20:41:20.819Z,18.44
2019-02-11T20:43:53.004Z,18.44
2019-02-11T20:46:25.398Z,18.46
2019-02-11T20:48:57.615Z,18.45
2019-02-11T20:51:29.793Z,18.46
2019-02-11T20:54:02.305Z,18.44
2019-02-11T20:56:35.132Z,18.44
2019-02-11T20:59:08.540Z,18.44
2019-02-11T21:01:41.445Z,18.44
2019-02-11T21:04:13.586Z,18.43
2019-02-11T21:06:45.793Z,18.42
2019-02-11T21:09:17.892Z,18.44
2019-02-11T21:11:50.177Z,18.44
2019-02-11T21:14:22.324Z,18.43
2019-02-11T21:16:54.705Z,18.42
2019-02-11T21:19:26.930Z,18.43
2019-02-11T21:21:59.225Z,18.43
2019-02-11T21:24:31.452Z,18.42
2019-02-11T21:27:03.716Z,18.42
2019-02-11T21:29:35.785Z,18.42
2019-02-11T21:32:08.039Z,18.42
2019-02-11T21:34:40.118Z,18.42
2019-02-11T21:37:12.303Z,18.42
2019-02-11T21:39:44.506Z,18.42
2019-02-11T21:42:16.689Z,18.44
2019-02-11T21:44:48.728Z,18.43
2019-02-11T21:47:20.852Z,18.41
2019-02-11T21:49:52.951Z,18.47
2019-02-11T21:52:25.200Z,18.46
2019-02-11T21:54:57.458Z,18.46
2019-02-11T21:57:29.739Z,18.44
2019-02-11T22:00:01.989Z,18.44
2019-02-11T22:02:35.198Z,18.45
2019-02-11T22:05:07.377Z,18.43
2019-02-11T22:07:39.572Z,18.43
2019-02-11T22:10:12.344Z,18.44
2019-02-11T22:12:44.611Z,18.44
2019-02-11T22:15:17.044Z,18.42
2019-02-11T22:17:49.324Z,18.42
2019-02-11T22:20:21.554Z,18.41
2019-02-11T22:22:53.888Z,18.41
2019-02-11T22:25:26.217Z,18.43
2019-02-11T22:27:58.476Z,18.42
2019-02-11T22:30:30.754Z,18.41
2019-02-11T22:33:02.967Z,18.42
2019-02-11T22:35:35.209Z,18.43
2019-02-11T22:38:07.349Z,18.42
2019-02-11T22:40:39.532Z,18.40
2019-02-11T22:43:11.825Z,18.40
2019-02-11T22:45:44.045Z,18.39
2019-02-11T22:48:16.357Z,18.39
2019-02-11T22:50:48.539Z,18.42
2019-02-11T22:53:20.933Z,18.41
2019-02-11T22:55:53.024Z,18.41
2019-02-11T22:58:25.203Z,18.41
2019-02-11T23:01:02.359Z,18.40
2019-02-11T23:03:34.701Z,18.42
2019-02-11T23:06:07.062Z,18.42
2019-02-11T23:08:40.184Z,18.41
2019-02-11T23:11:12.363Z,18.41
2019-02-11T23:13:44.560Z,18.42
2019-02-11T23:16:16.714Z,18.41
2019-02-11T23:18:49.007Z,18.41
2019-02-11T23:21:21.129Z,18.39
2019-02-11T23:23:53.366Z,18.41
2019-02-11T23:26:25.461Z,18.41
2019-02-11T23:28:57.688Z,18.40
2019-02-11T23:31:29.787Z,18.39
2019-02-11T23:34:01.974Z,18.40
2019-02-11T23:36:34.191Z,18.39
2019-02-11T23:39:08.149Z,18.40
2019-02-11T23:41:40.277Z,18.38
2019-02-11T23:44:12.387Z,18.39
2019-02-11T23:46:44.472Z,18.39
2019-02-11T23:49:16.737Z,18.39
2019-02-11T23:51:48.936Z,18.36
2019-02-11T23:54:21.208Z,18.38
2019-02-11T23:56:53.352Z,18.38
2019-02-11T23:59:25.923Z,18.37
